sensor_id;sensor_type;location;lat;lon;timestamp;pressure;altitude;pressure_sealevel;temperature;humidity
74915;BME280;63475;45.140;-75.616;2023-08-01T00:00:25;100743.94;;;21.42;42.95
74915;BME280;63475;45.140;-75.616;2023-08-01T00:02:28;100750.94;;;21.28;44.02
74915;BME280;63475;45.140;-75.616;2023-08-01T00:04:31;100755.84;;;21.17;44.15
74915;BME280;63475;45.140;-75.616;2023-08-01T00:06:34;100754.19;;;21.08;44.55
74915;BME280;63475;45.140;-75.616;2023-08-01T00:08:36;100758.59;;;21.00;44.91
74915;BME280;63475;45.140;-75.616;2023-08-01T00:10:42;100760.13;;;20.95;45.76
74915;BME280;63475;45.140;-75.616;2023-08-01T00:12:44;100755.78;;;20.86;46.41
74915;BME280;63475;45.140;-75.616;2023-08-01T00:14:47;100757.63;;;20.77;47.05
74915;BME280;63475;45.140;-75.616;2023-08-01T00:16:50;100758.66;;;20.68;48.45
74915;BME280;63475;45.140;-75.616;2023-08-01T00:18:53;100765.09;;;20.59;48.80
74915;BME280;63475;45.140;-75.616;2023-08-01T00:20:55;100759.81;;;20.49;48.22
74915;BME280;63475;45.140;-75.616;2023-08-01T00:22:58;100760.00;;;20.40;49.29
74915;BME280;63475;45.140;-75.616;2023-08-01T00:25:00;100762.69;;;20.31;48.63
74915;BME280;63475;45.140;-75.616;2023-08-01T00:27:03;100767.41;;;20.21;49.23
74915;BME280;63475;45.140;-75.616;2023-08-01T00:29:06;100764.19;;;20.10;49.59
74915;BME280;63475;45.140;-75.616;2023-08-01T00:31:08;100764.84;;;20.04;48.43
74915;BME280;63475;45.140;-75.616;2023-08-01T00:33:11;100768.41;;;19.96;49.58
74915;BME280;63475;45.140;-75.616;2023-08-01T00:35:14;100765.34;;;19.91;49.86
74915;BME280;63475;45.140;-75.616;2023-08-01T00:37:16;100772.25;;;19.85;50.30
74915;BME280;63475;45.140;-75.616;2023-08-01T00:39:19;100778.16;;;19.81;50.80
74915;BME280;63475;45.140;-75.616;2023-08-01T00:41:21;100782.53;;;19.74;50.54
74915;BME280;63475;45.140;-75.616;2023-08-01T00:43:24;100780.63;;;19.66;50.29
74915;BME280;63475;45.140;-75.616;2023-08-01T00:45:27;100790.72;;;19.56;51.30
74915;BME280;63475;45.140;-75.616;2023-08-01T00:47:29;100793.41;;;19.48;51.26
74915;BME280;63475;45.140;-75.616;2023-08-01T00:49:32;100787.41;;;19.36;51.50
74915;BME280;63475;45.140;-75.616;2023-08-01T00:51:36;100793.81;;;19.35;51.92
74915;BME280;63475;45.140;-75.616;2023-08-01T00:53:39;100799.19;;;19.27;51.88
74915;BME280;63475;45.140;-75.616;2023-08-01T00:55:42;100803.53;;;19.20;51.63
74915;BME280;63475;45.140;-75.616;2023-08-01T00:57:45;100806.00;;;19.05;52.35
74915;BME280;63475;45.140;-75.616;2023-08-01T00:59:49;100798.66;;;18.97;52.11
74915;BME280;63475;45.140;-75.616;2023-08-01T01:01:51;100806.13;;;18.86;52.49
74915;BME280;63475;45.140;-75.616;2023-08-01T01:03:54;100814.06;;;18.79;53.03
74915;BME280;63475;45.140;-75.616;2023-08-01T01:08:15;100822.38;;;18.68;54.53
74915;BME280;63475;45.140;-75.616;2023-08-01T01:10:18;100829.41;;;18.61;54.75
74915;BME280;63475;45.140;-75.616;2023-08-01T01:12:20;100840.84;;;18.55;55.83
74915;BME280;63475;45.140;-75.616;2023-08-01T01:14:23;100843.16;;;18.50;55.28
74915;BME280;63475;45.140;-75.616;2023-08-01T01:16:26;100839.38;;;18.43;55.39
74915;BME280;63475;45.140;-75.616;2023-08-01T01:18:28;100848.13;;;18.37;55.40
74915;BME280;63475;45.140;-75.616;2023-08-01T01:20:35;100852.41;;;18.29;57.41
74915;BME280;63475;45.140;-75.616;2023-08-01T01:22:39;100852.03;;;18.24;57.12
74915;BME280;63475;45.140;-75.616;2023-08-01T01:24:44;100858.72;;;18.20;57.44
74915;BME280;63475;45.140;-75.616;2023-08-01T01:26:48;100859.03;;;18.17;57.75
74915;BME280;63475;45.140;-75.616;2023-08-01T01:28:51;100862.72;;;18.16;57.85
74915;BME280;63475;45.140;-75.616;2023-08-01T01:30:54;100863.06;;;18.13;57.92
74915;BME280;63475;45.140;-75.616;2023-08-01T01:32:58;100868.75;;;18.10;58.09
74915;BME280;63475;45.140;-75.616;2023-08-01T01:35:03;100869.03;;;18.07;58.56
74915;BME280;63475;45.140;-75.616;2023-08-01T01:37:05;100863.94;;;18.04;58.69
74915;BME280;63475;45.140;-75.616;2023-08-01T01:39:08;100866.78;;;18.03;59.17
74915;BME280;63475;45.140;-75.616;2023-08-01T01:41:10;100878.72;;;18.00;59.46
74915;BME280;63475;45.140;-75.616;2023-08-01T01:43:13;100862.25;;;17.93;59.64
74915;BME280;63475;45.140;-75.616;2023-08-01T01:45:16;100873.22;;;17.92;60.49
74915;BME280;63475;45.140;-75.616;2023-08-01T01:47:19;100881.06;;;17.85;59.92
74915;BME280;63475;45.140;-75.616;2023-08-01T01:49:21;100880.78;;;17.79;59.54
74915;BME280;63475;45.140;-75.616;2023-08-01T01:51:28;100884.41;;;17.70;60.97
74915;BME280;63475;45.140;-75.616;2023-08-01T01:53:30;100878.88;;;17.61;60.94
74915;BME280;63475;45.140;-75.616;2023-08-01T01:55:33;100883.16;;;17.54;60.87
74915;BME280;63475;45.140;-75.616;2023-08-01T01:57:36;100880.38;;;17.46;60.80
74915;BME280;63475;45.140;-75.616;2023-08-01T01:59:39;100878.94;;;17.42;60.62
74915;BME280;63475;45.140;-75.616;2023-08-01T02:01:41;100877.53;;;17.38;60.88
74915;BME280;63475;45.140;-75.616;2023-08-01T02:03:44;100878.97;;;17.33;60.50
74915;BME280;63475;45.140;-75.616;2023-08-01T02:05:47;100889.03;;;17.31;61.79
74915;BME280;63475;45.140;-75.616;2023-08-01T02:07:50;100894.88;;;17.26;60.95
74915;BME280;63475;45.140;-75.616;2023-08-01T02:09:53;100883.53;;;17.22;60.90
74915;BME280;63475;45.140;-75.616;2023-08-01T02:11:55;100894.47;;;17.21;61.42
74915;BME280;63475;45.140;-75.616;2023-08-01T02:13:58;100901.13;;;17.17;61.21
74915;BME280;63475;45.140;-75.616;2023-08-01T02:16:00;100893.19;;;17.15;61.33
74915;BME280;63475;45.140;-75.616;2023-08-01T02:18:03;100898.00;;;17.12;61.10
74915;BME280;63475;45.140;-75.616;2023-08-01T02:20:06;100900.00;;;17.10;61.48
74915;BME280;63475;45.140;-75.616;2023-08-01T02:22:09;100898.56;;;17.06;61.64
74915;BME280;63475;45.140;-75.616;2023-08-01T02:24:11;100898.16;;;17.01;61.75
74915;BME280;63475;45.140;-75.616;2023-08-01T02:26:14;100901.13;;;16.98;61.92
74915;BME280;63475;45.140;-75.616;2023-08-01T02:28:16;100896.16;;;16.93;61.90
74915;BME280;63475;45.140;-75.616;2023-08-01T02:30:19;100901.97;;;16.88;62.04
74915;BME280;63475;45.140;-75.616;2023-08-01T02:32:22;100901.69;;;16.82;61.61
74915;BME280;63475;45.140;-75.616;2023-08-01T02:34:24;100902.97;;;16.78;62.25
74915;BME280;63475;45.140;-75.616;2023-08-01T02:36:27;100904.38;;;16.72;61.82
74915;BME280;63475;45.140;-75.616;2023-08-01T02:38:29;100907.38;;;16.69;62.77
74915;BME280;63475;45.140;-75.616;2023-08-01T02:40:32;100906.06;;;16.64;63.47
74915;BME280;63475;45.140;-75.616;2023-08-01T02:42:34;100902.66;;;16.61;63.43
74915;BME280;63475;45.140;-75.616;2023-08-01T02:44:37;100911.34;;;16.55;63.42
74915;BME280;63475;45.140;-75.616;2023-08-01T02:46:39;100907.06;;;16.53;62.74
74915;BME280;63475;45.140;-75.616;2023-08-01T02:48:43;100910.31;;;16.47;63.06
74915;BME280;63475;45.140;-75.616;2023-08-01T02:50:45;100911.31;;;16.46;63.21
74915;BME280;63475;45.140;-75.616;2023-08-01T02:52:48;100901.94;;;16.40;63.36
74915;BME280;63475;45.140;-75.616;2023-08-01T02:54:50;100909.16;;;16.40;64.02
74915;BME280;63475;45.140;-75.616;2023-08-01T02:56:53;100912.44;;;16.34;63.61
74915;BME280;63475;45.140;-75.616;2023-08-01T02:58:56;100909.28;;;16.29;63.52
74915;BME280;63475;45.140;-75.616;2023-08-01T03:00:59;100910.56;;;16.24;63.67
74915;BME280;63475;45.140;-75.616;2023-08-01T03:03:01;100913.91;;;16.17;63.83
74915;BME280;63475;45.140;-75.616;2023-08-01T03:05:09;100913.47;;;16.12;64.15
74915;BME280;63475;45.140;-75.616;2023-08-01T03:07:11;100919.97;;;16.09;64.53
74915;BME280;63475;45.140;-75.616;2023-08-01T03:09:14;100926.75;;;16.04;64.64
74915;BME280;63475;45.140;-75.616;2023-08-01T03:11:18;100923.59;;;15.99;64.30
74915;BME280;63475;45.140;-75.616;2023-08-01T03:13:21;100929.53;;;15.92;64.85
74915;BME280;63475;45.140;-75.616;2023-08-01T03:15:23;100926.97;;;15.91;64.88
74915;BME280;63475;45.140;-75.616;2023-08-01T03:17:26;100926.41;;;15.87;65.20
74915;BME280;63475;45.140;-75.616;2023-08-01T03:19:28;100924.13;;;15.83;65.65
74915;BME280;63475;45.140;-75.616;2023-08-01T03:21:34;100925.38;;;15.79;65.54
74915;BME280;63475;45.140;-75.616;2023-08-01T03:23:37;100925.75;;;15.74;65.50
74915;BME280;63475;45.140;-75.616;2023-08-01T03:25:40;100932.53;;;15.69;65.35
74915;BME280;63475;45.140;-75.616;2023-08-01T03:27:42;100932.81;;;15.66;65.33
74915;BME280;63475;45.140;-75.616;2023-08-01T03:29:45;100934.06;;;15.62;65.65
74915;BME280;63475;45.140;-75.616;2023-08-01T03:31:48;100936.28;;;15.56;65.83
74915;BME280;63475;45.140;-75.616;2023-08-01T03:33:50;100937.53;;;15.52;66.13
74915;BME280;63475;45.140;-75.616;2023-08-01T03:35:53;100950.53;;;15.47;66.18
74915;BME280;63475;45.140;-75.616;2023-08-01T03:37:55;100943.72;;;15.43;66.17
74915;BME280;63475;45.140;-75.616;2023-08-01T03:39:58;100937.16;;;15.36;66.30
74915;BME280;63475;45.140;-75.616;2023-08-01T03:42:00;100942.94;;;15.32;66.06
74915;BME280;63475;45.140;-75.616;2023-08-01T03:44:04;100947.84;;;15.27;66.40
74915;BME280;63475;45.140;-75.616;2023-08-01T03:46:07;100943.00;;;15.20;66.61
74915;BME280;63475;45.140;-75.616;2023-08-01T03:48:10;100943.38;;;15.16;67.39
74915;BME280;63475;45.140;-75.616;2023-08-01T03:50:13;100936.78;;;15.09;67.52
74915;BME280;63475;45.140;-75.616;2023-08-01T03:52:16;100947.78;;;15.06;67.79
74915;BME280;63475;45.140;-75.616;2023-08-01T03:54:19;100946.88;;;14.96;67.51
74915;BME280;63475;45.140;-75.616;2023-08-01T03:56:21;100937.63;;;14.88;67.57
74915;BME280;63475;45.140;-75.616;2023-08-01T03:58:24;100946.16;;;14.82;67.84
74915;BME280;63475;45.140;-75.616;2023-08-01T04:00:26;100931.28;;;14.78;67.43
74915;BME280;63475;45.140;-75.616;2023-08-01T04:02:34;100936.09;;;14.75;68.16
74915;BME280;63475;45.140;-75.616;2023-08-01T04:04:37;100930.38;;;14.68;67.81
74915;BME280;63475;45.140;-75.616;2023-08-01T04:06:40;100935.00;;;14.66;68.04
74915;BME280;63475;45.140;-75.616;2023-08-01T04:08:42;100936.97;;;14.64;68.01
74915;BME280;63475;45.140;-75.616;2023-08-01T04:10:45;100934.78;;;14.58;68.19
74915;BME280;63475;45.140;-75.616;2023-08-01T04:12:48;100940.41;;;14.55;68.54
74915;BME280;63475;45.140;-75.616;2023-08-01T04:14:51;100943.47;;;14.50;68.75
74915;BME280;63475;45.140;-75.616;2023-08-01T04:16:53;100942.16;;;14.45;69.00
74915;BME280;63475;45.140;-75.616;2023-08-01T04:18:56;100938.84;;;14.41;68.97
74915;BME280;63475;45.140;-75.616;2023-08-01T04:20:59;100945.31;;;14.39;69.52
74915;BME280;63475;45.140;-75.616;2023-08-01T04:23:01;100943.00;;;14.34;69.90
74915;BME280;63475;45.140;-75.616;2023-08-01T04:25:05;100941.44;;;14.32;69.49
74915;BME280;63475;45.140;-75.616;2023-08-01T04:27:07;100947.91;;;14.29;69.98
74915;BME280;63475;45.140;-75.616;2023-08-01T04:29:10;100942.91;;;14.25;70.35
74915;BME280;63475;45.140;-75.616;2023-08-01T04:31:12;100941.69;;;14.17;69.95
74915;BME280;63475;45.140;-75.616;2023-08-01T04:33:15;100945.59;;;14.13;69.93
74915;BME280;63475;45.140;-75.616;2023-08-01T04:35:18;100942.19;;;14.11;69.77
74915;BME280;63475;45.140;-75.616;2023-08-01T04:37:20;100951.22;;;14.10;70.27
74915;BME280;63475;45.140;-75.616;2023-08-01T04:39:25;100950.63;;;14.07;70.34
74915;BME280;63475;45.140;-75.616;2023-08-01T04:41:27;100952.53;;;14.05;70.51
74915;BME280;63475;45.140;-75.616;2023-08-01T04:43:30;100955.34;;;14.03;70.36
74915;BME280;63475;45.140;-75.616;2023-08-01T04:45:32;100950.22;;;14.00;70.51
74915;BME280;63475;45.140;-75.616;2023-08-01T04:47:35;100955.81;;;13.97;70.72
74915;BME280;63475;45.140;-75.616;2023-08-01T04:49:38;100962.41;;;13.93;70.87
74915;BME280;63475;45.140;-75.616;2023-08-01T04:51:40;100956.53;;;13.88;71.47
74915;BME280;63475;45.140;-75.616;2023-08-01T04:53:43;100959.09;;;13.89;71.36
74915;BME280;63475;45.140;-75.616;2023-08-01T04:55:45;100958.38;;;13.87;71.46
74915;BME280;63475;45.140;-75.616;2023-08-01T04:57:48;100953.97;;;13.86;71.84
74915;BME280;63475;45.140;-75.616;2023-08-01T04:59:50;100959.34;;;13.86;71.30
74915;BME280;63475;45.140;-75.616;2023-08-01T05:01:53;100958.63;;;13.84;71.40
74915;BME280;63475;45.140;-75.616;2023-08-01T05:03:55;100944.63;;;13.81;70.97
74915;BME280;63475;45.140;-75.616;2023-08-01T05:05:58;100952.66;;;13.81;71.61
74915;BME280;63475;45.140;-75.616;2023-08-01T05:08:01;100947.41;;;13.79;71.09
74915;BME280;63475;45.140;-75.616;2023-08-01T05:10:04;100948.63;;;13.75;71.21
74915;BME280;63475;45.140;-75.616;2023-08-01T05:12:07;100950.44;;;13.75;71.12
74915;BME280;63475;45.140;-75.616;2023-08-01T05:14:11;100952.41;;;13.73;71.28
74915;BME280;63475;45.140;-75.616;2023-08-01T05:16:13;100951.66;;;13.71;71.59
74915;BME280;63475;45.140;-75.616;2023-08-01T05:18:16;100946.53;;;13.68;71.60
74915;BME280;63475;45.140;-75.616;2023-08-01T05:20:19;100940.44;;;13.66;72.04
74915;BME280;63475;45.140;-75.616;2023-08-01T05:22:22;100948.59;;;13.64;71.75
74915;BME280;63475;45.140;-75.616;2023-08-01T05:24:24;100947.75;;;13.64;72.45
74915;BME280;63475;45.140;-75.616;2023-08-01T05:26:27;100945.34;;;13.61;71.89
74915;BME280;63475;45.140;-75.616;2023-08-01T05:28:29;100954.22;;;13.61;71.68
74915;BME280;63475;45.140;-75.616;2023-08-01T05:30:32;100948.25;;;13.58;71.59
74915;BME280;63475;45.140;-75.616;2023-08-01T05:32:35;100953.72;;;13.56;71.37
74915;BME280;63475;45.140;-75.616;2023-08-01T05:34:37;100965.66;;;13.52;71.69
74915;BME280;63475;45.140;-75.616;2023-08-01T05:36:40;100965.88;;;13.49;71.64
74915;BME280;63475;45.140;-75.616;2023-08-01T05:38:43;100963.31;;;13.47;71.75
74915;BME280;63475;45.140;-75.616;2023-08-01T05:40:45;100970.00;;;13.42;71.73
74915;BME280;63475;45.140;-75.616;2023-08-01T05:42:48;100971.13;;;13.39;71.91
74915;BME280;63475;45.140;-75.616;2023-08-01T05:44:51;100970.38;;;13.37;71.91
74915;BME280;63475;45.140;-75.616;2023-08-01T05:46:53;100983.03;;;13.35;72.01
74915;BME280;63475;45.140;-75.616;2023-08-01T05:48:56;100976.09;;;13.33;72.06
74915;BME280;63475;45.140;-75.616;2023-08-01T05:50:58;100972.03;;;13.27;72.55
74915;BME280;63475;45.140;-75.616;2023-08-01T05:53:01;100970.34;;;13.26;72.05
74915;BME280;63475;45.140;-75.616;2023-08-01T05:55:04;100971.53;;;13.22;72.15
74915;BME280;63475;45.140;-75.616;2023-08-01T05:57:07;100970.69;;;13.21;72.37
74915;BME280;63475;45.140;-75.616;2023-08-01T05:59:10;100971.06;;;13.17;72.60
74915;BME280;63475;45.140;-75.616;2023-08-01T06:01:13;100965.91;;;13.14;72.99
74915;BME280;63475;45.140;-75.616;2023-08-01T06:03:16;100972.25;;;13.13;73.26
74915;BME280;63475;45.140;-75.616;2023-08-01T06:05:20;100968.94;;;13.09;73.15
74915;BME280;63475;45.140;-75.616;2023-08-01T06:07:22;100970.13;;;13.05;72.81
74915;BME280;63475;45.140;-75.616;2023-08-01T06:09:25;100967.56;;;13.04;72.81
74915;BME280;63475;45.140;-75.616;2023-08-01T06:11:28;100970.25;;;13.04;73.51
74915;BME280;63475;45.140;-75.616;2023-08-01T06:13:30;100970.72;;;12.98;73.44
74915;BME280;63475;45.140;-75.616;2023-08-01T06:15:33;100967.44;;;12.94;73.00
74915;BME280;63475;45.140;-75.616;2023-08-01T06:17:36;100962.50;;;12.88;73.93
74915;BME280;63475;45.140;-75.616;2023-08-01T06:19:38;100976.53;;;12.92;73.97
74915;BME280;63475;45.140;-75.616;2023-08-01T06:21:41;100956.41;;;12.86;74.04
74915;BME280;63475;45.140;-75.616;2023-08-01T06:23:43;100971.38;;;12.88;74.04
74915;BME280;63475;45.140;-75.616;2023-08-01T06:25:46;100973.31;;;12.86;73.87
74915;BME280;63475;45.140;-75.616;2023-08-01T06:27:48;100971.59;;;12.85;74.26
74915;BME280;63475;45.140;-75.616;2023-08-01T06:29:54;100976.22;;;12.83;74.44
74915;BME280;63475;45.140;-75.616;2023-08-01T06:31:56;100979.13;;;12.80;73.88
74915;BME280;63475;45.140;-75.616;2023-08-01T06:37:27;100975.91;;;12.75;74.67
74915;BME280;63475;45.140;-75.616;2023-08-01T06:39:30;100972.50;;;12.73;74.75
74915;BME280;63475;45.140;-75.616;2023-08-01T06:41:32;100979.81;;;12.71;74.90
74915;BME280;63475;45.140;-75.616;2023-08-01T06:43:35;100981.63;;;12.71;75.12
74915;BME280;63475;45.140;-75.616;2023-08-01T06:45:40;100977.38;;;12.68;74.48
74915;BME280;63475;45.140;-75.616;2023-08-01T06:47:43;100988.94;;;12.69;74.86
74915;BME280;63475;45.140;-75.616;2023-08-01T06:49:45;100980.03;;;12.68;74.97
74915;BME280;63475;45.140;-75.616;2023-08-01T06:51:48;100986.38;;;12.67;74.96
74915;BME280;63475;45.140;-75.616;2023-08-01T06:53:51;100983.78;;;12.66;75.13
74915;BME280;63475;45.140;-75.616;2023-08-01T06:55:53;100991.19;;;12.62;75.00
74915;BME280;63475;45.140;-75.616;2023-08-01T06:57:56;100986.06;;;12.59;75.02
74915;BME280;63475;45.140;-75.616;2023-08-01T06:59:59;100996.75;;;12.59;75.27
74915;BME280;63475;45.140;-75.616;2023-08-01T07:02:01;100987.13;;;12.57;75.57
74915;BME280;63475;45.140;-75.616;2023-08-01T07:04:04;100992.38;;;12.58;75.04
74915;BME280;63475;45.140;-75.616;2023-08-01T07:06:07;100997.72;;;12.58;75.06
74915;BME280;63475;45.140;-75.616;2023-08-01T07:08:09;100994.31;;;12.56;75.22
74915;BME280;63475;45.140;-75.616;2023-08-01T07:10:12;100992.72;;;12.53;75.70
74915;BME280;63475;45.140;-75.616;2023-08-01T07:12:15;101001.59;;;12.54;75.86
74915;BME280;63475;45.140;-75.616;2023-08-01T07:14:17;100998.91;;;12.54;76.16
74915;BME280;63475;45.140;-75.616;2023-08-01T07:16:20;101004.03;;;12.57;76.22
74915;BME280;63475;45.140;-75.616;2023-08-01T07:18:22;101004.03;;;12.57;76.03
74915;BME280;63475;45.140;-75.616;2023-08-01T07:20:25;100999.78;;;12.54;75.45
74915;BME280;63475;45.140;-75.616;2023-08-01T07:22:28;101005.00;;;12.56;75.68
74915;BME280;63475;45.140;-75.616;2023-08-01T07:24:30;101006.84;;;12.56;75.65
74915;BME280;63475;45.140;-75.616;2023-08-01T07:26:33;101005.97;;;12.55;76.50
74915;BME280;63475;45.140;-75.616;2023-08-01T07:28:36;101013.03;;;12.56;76.61
74915;BME280;63475;45.140;-75.616;2023-08-01T07:30:38;101013.91;;;12.57;76.37
74915;BME280;63475;45.140;-75.616;2023-08-01T07:32:41;101018.16;;;12.59;75.85
74915;BME280;63475;45.140;-75.616;2023-08-01T07:34:45;101013.91;;;12.57;76.23
74915;BME280;63475;45.140;-75.616;2023-08-01T07:36:48;101012.19;;;12.56;76.56
74915;BME280;63475;45.140;-75.616;2023-08-01T07:38:51;101007.69;;;12.56;76.52
74915;BME280;63475;45.140;-75.616;2023-08-01T07:40:55;101014.75;;;12.57;76.69
74915;BME280;63475;45.140;-75.616;2023-08-01T07:42:58;101015.59;;;12.58;76.64
74915;BME280;63475;45.140;-75.616;2023-08-01T07:45:02;101013.91;;;12.57;76.56
74915;BME280;63475;45.140;-75.616;2023-08-01T07:47:04;101016.47;;;12.58;76.25
74915;BME280;63475;45.140;-75.616;2023-08-01T07:49:07;101006.84;;;12.56;76.50
74915;BME280;63475;45.140;-75.616;2023-08-01T07:51:09;101014.75;;;12.57;77.07
74915;BME280;63475;45.140;-75.616;2023-08-01T07:53:13;101015.94;;;12.53;76.44
74915;BME280;63475;45.140;-75.616;2023-08-01T07:55:16;101023.00;;;12.54;76.77
74915;BME280;63475;45.140;-75.616;2023-08-01T07:57:20;101017.53;;;12.56;77.16
74915;BME280;63475;45.140;-75.616;2023-08-01T07:59:22;101017.66;;;12.54;76.54
74915;BME280;63475;45.140;-75.616;2023-08-01T08:01:25;101025.69;;;12.54;76.26
74915;BME280;63475;45.140;-75.616;2023-08-01T08:03:28;101036.38;;;12.54;77.04
74915;BME280;63475;45.140;-75.616;2023-08-01T08:05:31;101034.66;;;12.53;76.42
74915;BME280;63475;45.140;-75.616;2023-08-01T08:07:33;101029.31;;;12.53;76.61
74915;BME280;63475;45.140;-75.616;2023-08-01T08:09:36;101039.28;;;12.51;76.74
74915;BME280;63475;45.140;-75.616;2023-08-01T08:11:38;101041.94;;;12.51;76.34
74915;BME280;63475;45.140;-75.616;2023-08-01T08:13:41;101043.91;;;12.49;76.44
74915;BME280;63475;45.140;-75.616;2023-08-01T08:15:43;101039.53;;;12.48;77.34
74915;BME280;63475;45.140;-75.616;2023-08-01T08:17:46;101034.28;;;12.46;78.00
74915;BME280;63475;45.140;-75.616;2023-08-01T08:19:49;101047.13;;;12.41;78.03
74915;BME280;63475;45.140;-75.616;2023-08-01T08:21:51;101041.78;;;12.41;78.01
74915;BME280;63475;45.140;-75.616;2023-08-01T08:23:54;101049.69;;;12.43;77.60
74915;BME280;63475;45.140;-75.616;2023-08-01T08:25:57;101045.19;;;12.43;77.24
74915;BME280;63475;45.140;-75.616;2023-08-01T08:27:59;101045.31;;;12.42;77.50
74915;BME280;63475;45.140;-75.616;2023-08-01T08:30:02;101047.13;;;12.41;77.46
74915;BME280;63475;45.140;-75.616;2023-08-01T08:32:05;101047.13;;;12.41;77.97
74915;BME280;63475;45.140;-75.616;2023-08-01T08:34:08;101054.50;;;12.38;78.35
74915;BME280;63475;45.140;-75.616;2023-08-01T08:36:11;101059.09;;;12.36;78.54
74915;BME280;63475;45.140;-75.616;2023-08-01T08:38:13;101058.25;;;12.35;77.21
74915;BME280;63475;45.140;-75.616;2023-08-01T08:40:16;101066.28;;;12.35;78.09
74915;BME280;63475;45.140;-75.616;2023-08-01T08:42:19;101057.59;;;12.32;78.16
74915;BME280;63475;45.140;-75.616;2023-08-01T08:44:21;101065.75;;;12.30;78.28
74915;BME280;63475;45.140;-75.616;2023-08-01T08:46:29;101064.03;;;12.29;77.56
74915;BME280;63475;45.140;-75.616;2023-08-01T08:48:32;101056.13;;;12.28;77.78
74915;BME280;63475;45.140;-75.616;2023-08-01T08:50:36;101074.13;;;12.26;78.04
74915;BME280;63475;45.140;-75.616;2023-08-01T08:52:40;101069.50;;;12.28;77.57
74915;BME280;63475;45.140;-75.616;2023-08-01T08:54:43;101066.94;;;12.26;77.74
74915;BME280;63475;45.140;-75.616;2023-08-01T08:56:46;101079.47;;;12.26;77.42
74915;BME280;63475;45.140;-75.616;2023-08-01T08:58:49;101072.63;;;12.22;77.25
74915;BME280;63475;45.140;-75.616;2023-08-01T09:00:52;101071.75;;;12.21;76.96
74915;BME280;63475;45.140;-75.616;2023-08-01T09:02:54;101085.25;;;12.19;77.45
74915;BME280;63475;45.140;-75.616;2023-08-01T09:04:57;101078.16;;;12.18;77.97
74915;BME280;63475;45.140;-75.616;2023-08-01T09:07:02;101075.59;;;12.17;77.70
74915;BME280;63475;45.140;-75.616;2023-08-01T09:09:14;101087.91;;;12.19;78.39
74915;BME280;63475;45.140;-75.616;2023-08-01T09:11:17;101087.38;;;12.14;78.11
74915;BME280;63475;45.140;-75.616;2023-08-01T09:13:20;101082.97;;;12.13;77.75
74915;BME280;63475;45.140;-75.616;2023-08-01T09:15:25;101093.78;;;12.12;77.88
74915;BME280;63475;45.140;-75.616;2023-08-01T09:17:29;101093.88;;;12.10;77.63
74915;BME280;63475;45.140;-75.616;2023-08-01T09:19:32;101099.25;;;12.10;77.83
74915;BME280;63475;45.140;-75.616;2023-08-01T09:21:36;101097.53;;;12.09;77.50
74915;BME280;63475;45.140;-75.616;2023-08-01T09:23:41;101091.41;;;12.07;78.47
74915;BME280;63475;45.140;-75.616;2023-08-01T09:25:44;101103.94;;;12.07;77.77
74915;BME280;63475;45.140;-75.616;2023-08-01T09:27:47;101106.84;;;12.04;78.16
74915;BME280;63475;45.140;-75.616;2023-08-01T09:29:49;101106.31;;;11.99;78.42
74915;BME280;63475;45.140;-75.616;2023-08-01T09:31:52;101112.31;;;12.02;77.78
74915;BME280;63475;45.140;-75.616;2023-08-01T09:33:56;101116.91;;;12.00;78.13
74915;BME280;63475;45.140;-75.616;2023-08-01T09:36:01;101121.69;;;11.95;79.00
74915;BME280;63475;45.140;-75.616;2023-08-01T09:38:06;101123.41;;;11.96;77.92
74915;BME280;63475;45.140;-75.616;2023-08-01T09:40:14;101117.31;;;11.94;78.61
74915;BME280;63475;45.140;-75.616;2023-08-01T09:42:16;101116.44;;;11.94;78.29
74915;BME280;63475;45.140;-75.616;2023-08-01T09:44:19;101124.38;;;11.95;78.16
74915;BME280;63475;45.140;-75.616;2023-08-01T09:46:22;101128.41;;;11.88;79.15
74915;BME280;63475;45.140;-75.616;2023-08-01T09:48:27;101136.31;;;11.90;79.04
74915;BME280;63475;45.140;-75.616;2023-08-01T09:50:30;101136.31;;;11.90;78.36
74915;BME280;63475;45.140;-75.616;2023-08-01T09:52:33;101127.56;;;11.88;78.85
74915;BME280;63475;45.140;-75.616;2023-08-01T09:54:35;101130.13;;;11.89;78.26
74915;BME280;63475;45.140;-75.616;2023-08-01T09:56:40;101139.09;;;11.88;79.38
74915;BME280;63475;45.140;-75.616;2023-08-01T09:58:47;101133.97;;;11.85;78.62
74915;BME280;63475;45.140;-75.616;2023-08-01T10:00:49;101131.28;;;11.85;79.25
74915;BME280;63475;45.140;-75.616;2023-08-01T10:02:55;101141.34;;;11.81;79.65
74915;BME280;63475;45.140;-75.616;2023-08-01T10:05:00;101136.97;;;11.80;79.55
74915;BME280;63475;45.140;-75.616;2023-08-01T10:07:07;101148.53;;;11.81;79.46
74915;BME280;63475;45.140;-75.616;2023-08-01T10:09:10;101147.00;;;11.77;78.87
74915;BME280;63475;45.140;-75.616;2023-08-01T10:11:17;101142.41;;;11.79;78.70
74915;BME280;63475;45.140;-75.616;2023-08-01T10:13:20;101147.00;;;11.77;79.11
74915;BME280;63475;45.140;-75.616;2023-08-01T10:15:25;101147.88;;;11.77;78.97
74915;BME280;63475;45.140;-75.616;2023-08-01T10:17:29;101160.28;;;11.78;78.53
74915;BME280;63475;45.140;-75.616;2023-08-01T10:19:32;101161.13;;;11.79;78.54
74915;BME280;63475;45.140;-75.616;2023-08-01T10:21:35;101164.00;;;11.76;78.07
74915;BME280;63475;45.140;-75.616;2023-08-01T10:23:39;101167.53;;;11.76;78.28
74915;BME280;63475;45.140;-75.616;2023-08-01T10:25:42;101169.25;;;11.77;78.87
74915;BME280;63475;45.140;-75.616;2023-08-01T10:27:45;101173.72;;;11.77;79.42
74915;BME280;63475;45.140;-75.616;2023-08-01T10:30:02;101172.88;;;11.76;79.00
74915;BME280;63475;45.140;-75.616;2023-08-01T10:32:07;101173.72;;;11.77;79.32